Nearby METAR Reports

 

KSJC - San Jose, California, USA
Distance from station: NE 14km
Updated: 2021-04-16 16:53
Few Clouds
Few Clouds
 Wind from NW
Wind: NW 20 km/h
Temperature: 19°C
Dew Point: 9°C
Humidity: 52%
Barometer: 1015.2 hPa
Clouds: Few Clouds
Visibility: 16 km
Cloud details: Few Clouds 1067 m
2021/04/16 21:53 KSJC 162153Z 32011KT 10SM FEW035 19/09 A2998 RMK AO2 SLP152 T01890089
KNUQ - Moffett Nas/Mtn, California, USA
Distance from station: N 14km
Updated: 2021-04-13 17:40
NOT Current

 
2021/04/13 22:40 KNUQ 132240Z AUTO RMK AO2 PNO PWINO TSNO
 
KPAO - Palo Alto, California, USA
Distance from station: NNW 23km
Updated: 2021-04-16 16:47
Clear
Clear
 Wind from NNW
Wind: NNW 24 km/h
Temperature: 17°C
Dew Point: 9°C
Humidity: 59%
Barometer: 1015.9 hPa
Clouds: Clear
Visibility: 16 km
2021/04/16 21:47 KPAO 162147Z 33013KT 10SM SKC 17/09 A3000
KRHV - San Jose/Reid, California, USA
Distance from station: ENE 19km
Updated: 2021-04-16 16:47
Clear
Clear
 Wind from W
Wind: W 17 km/h
Temperature: 21°C
Dew Point: 6°C
Humidity: 38%
Barometer: 1015.2 hPa
Clouds: Clear
Visibility: 16 km
2021/04/16 21:47 KRHV 162147Z 28009KT 10SM SKC 21/06 A2998
 
KOAK - Oakland, California, USA
Distance from station: NNW 50km
Updated: 2021-04-16 16:53
Few Clouds
Few Clouds
 Wind from WNW
Wind: WNW 28 km/h
Temperature: 15°C
Dew Point: 8°C
Humidity: 63%
Barometer: 1016.3 hPa
Clouds: Few Clouds
Visibility: 16 km
Cloud details: Few Clouds 427 m
Few Clouds 732 m
2021/04/16 21:53 KOAK 162153Z 29015KT 10SM FEW014 FEW024 15/08 A3001 RMK AO2 SLP160 T01500078
KSQL - San Carlos Airpo, California, USA
Distance from station: NW 34km
Updated: 2021-04-16 16:47
Clear
Clear
 Wind from NNW
Wind: NNW 22 km/h
Temperature: 17°C
Dew Point: 9°C
Humidity: 59%
Barometer: 1015.9 hPa
Clouds: Clear
Visibility: 16 km
2021/04/16 21:47 KSQL 162147Z 34012KT 10SM SKC 17/09 A3000
 
KSFO - San Francisco, California, USA
Distance from station: NW 49km
Updated: 2021-04-16 16:56
Few Clouds
Few Clouds
 Wind from WNW
Wind: WNW 33 km/h
Temperature: 14°C
Dew Point: 7°C
Humidity: 63%
Barometer: 1015.9 hPa
Clouds: Few Clouds
Visibility: 16 km
Cloud details: Few Clouds 335 m
2021/04/16 21:56 KSFO 162156Z 29018KT 10SM FEW011 14/07 A3000 RMK AO2 PK WND 30026/2151 SLP160 T01440072
KE16 - San Martin, California, USA
Distance from station: ESE 43km
Updated: 2021-04-16 17:15
Clear
Clear
 Wind from NW
Wind: NW 20 km/h
Temperature: 23°C
Dew Point: 2°C
Humidity: 25%
Barometer: 1014.6 hPa
Clouds: Clear
Visibility: 16 km
2021/04/16 22:15 KE16 162215Z AUTO 32011KT 10SM CLR 23/02 A2996 RMK AO2 PWINO PNO
 
KWVI - Watsonville, California, USA
Distance from station: SSE 44km
Updated: 2021-04-16 16:53
Clear
Clear
 Wind from varies
Wind: varies 11 km/h
Temperature: 17°C
Dew Point: 10°C
Humidity: 64%
Barometer: 1016.3 hPa
Clouds: Clear
Visibility: 16 km
2021/04/16 21:53 KWVI 162153Z AUTO VRB06KT 10SM CLR 17/10 A3001 RMK AO2 SLP161 T01670100
KHAF - Half Moon Bay, California, USA
Distance from station: WNW 50km
Updated: 2021-04-16 17:15
Haze, Mostly cloudy
Haze, Mostly cloudy
 Wind from NW
Wind: NW 19 km/h
Temperature: 11°C
Dew Point: 8°C
Humidity: 82%
Barometer: 1017.3 hPa
Summary: Haze
Clouds: Mostly cloudy
Visibility: 8 km
Cloud details: Mostly cloudy 366 m
2021/04/16 22:15 KHAF 162215Z AUTO 32010KT 5SM HZ BKN012 11/08 A3004 RMK AO2
 
KHWD - Hayward, California, USA
Distance from station: N 44km
Updated: 2021-04-16 16:54
Clear
Clear
 Wind from W
Wind: W 24 km/h
Temperature: 17°C
Dew Point: 7°C
Humidity: 52%
Barometer: 1015.9 hPa
Clouds: Clear
Visibility: 16 km
2021/04/16 21:54 KHWD 162154Z 28013KT 10SM CLR 17/07 A3000 RMK AO2 SLP167 T01670072
KLVK - Livermore, California, USA
Distance from station: NNE 51km
Updated: 2021-04-16 16:53
Clear
Clear
 Wind from W
Wind: W 20 km/h
Temperature: 23°C
Dew Point: 2°C
Humidity: 25%
Barometer: 1014.2 hPa
Clouds: Clear
Visibility: 16 km
2021/04/16 21:53 KLVK 162153Z 27011KT 10SM CLR 23/02 A2995 RMK AO2 SLP140 T02330017